createdAt,value
2019-06-07T00:01:46.923Z,9.13
2019-06-07T00:04:16.125Z,9.30
2019-06-07T00:06:44.597Z,9.20
2019-06-07T00:09:15.322Z,9.90
2019-06-07T00:11:42.614Z,9.45
2019-06-07T00:14:14.179Z,9.88
2019-06-07T00:16:40.646Z,8.75
2019-06-07T00:19:09.580Z,9.23
2019-06-07T00:22:13.869Z,8.40
2019-06-07T00:24:08.757Z,10.35
2019-06-07T00:26:57.202Z,9.85
2019-06-07T00:29:09.251Z,9.58
2019-06-07T00:31:37.850Z,8.70
2019-06-07T00:34:06.153Z,9.88
2019-06-07T00:36:34.284Z,9.35
2019-06-07T00:39:02.403Z,9.73
2019-06-07T00:41:30.560Z,10.35
2019-06-07T00:43:58.717Z,9.30
2019-06-07T00:46:26.876Z,8.63
2019-06-07T00:48:55.016Z,11.57
2019-06-07T00:51:24.089Z,10.08
2019-06-07T00:53:52.406Z,10.25
2019-06-07T00:56:22.175Z,10.15
2019-06-07T00:59:10.138Z,9.55
2019-06-07T01:01:22.756Z,9.25
2019-06-07T01:03:50.391Z,8.90
2019-06-07T01:06:22.650Z,8.88
2019-06-07T01:08:48.354Z,9.25
2019-06-07T01:11:18.548Z,8.93
2019-06-07T01:13:46.317Z,9.15
2019-06-07T01:16:16.184Z,9.70
2019-06-07T01:18:46.734Z,8.70
2019-06-07T01:21:15.831Z,9.30
2019-06-07T01:24:08.048Z,10.43
2019-06-07T01:26:16.370Z,9.40
2019-06-07T01:28:43.888Z,10.60
2019-06-07T01:31:12.091Z,10.53
2019-06-07T01:33:50.800Z,9.83
2019-06-07T01:36:10.164Z,9.45
2019-06-07T01:38:38.360Z,10.03
2019-06-07T01:41:06.509Z,9.25
2019-06-07T01:43:34.690Z,9.88
2019-06-07T01:46:02.750Z,9.80
2019-06-07T01:48:48.578Z,9.03
2019-06-07T01:51:00.736Z,9.33
2019-06-07T01:53:31.391Z,10.20
2019-06-07T01:55:58.780Z,8.95
2019-06-07T01:58:29.138Z,9.43
2019-06-07T02:00:56.780Z,10.20
2019-06-07T02:03:26.932Z,11.78
2019-06-07T02:05:55.598Z,11.28
2019-06-07T02:08:26.183Z,9.50
2019-06-07T02:10:53.718Z,10.35
2019-06-07T02:13:23.595Z,9.78
2019-06-07T02:15:51.739Z,10.55
2019-06-07T02:18:21.802Z,8.73
2019-06-07T02:20:49.778Z,11.80
2019-06-07T02:23:17.898Z,9.00
2019-06-07T02:25:50.485Z,10.03
2019-06-07T02:28:30.009Z,11.00
2019-06-07T02:30:58.982Z,10.53
2019-06-07T02:33:15.634Z,10.35
2019-06-07T02:35:43.791Z,10.32
2019-06-07T02:38:11.943Z,10.03
2019-06-07T02:40:40.246Z,11.70
2019-06-07T02:43:08.409Z,10.45
2019-06-07T02:45:43.156Z,9.75
2019-06-07T02:48:06.476Z,10.10
2019-06-07T02:50:38.350Z,11.08
2019-06-07T02:53:04.583Z,11.45
2019-06-07T02:55:44.766Z,12.25
2019-06-07T02:58:02.988Z,12.28
2019-06-07T03:01:00.113Z,13.72
2019-06-07T03:03:14.432Z,13.60
2019-06-07T03:05:44.734Z,13.08
2019-06-07T03:08:13.952Z,13.83
2019-06-07T03:10:45.053Z,14.30
2019-06-07T03:13:16.996Z,16.12
2019-06-07T03:15:49.949Z,13.70
2019-06-07T03:18:18.166Z,14.35
2019-06-07T03:21:04.533Z,14.75
2019-06-07T03:23:19.632Z,15.90
2019-06-07T03:25:50.649Z,14.18
2019-06-07T03:28:18.976Z,15.48
2019-06-07T03:31:00.871Z,16.05
2019-06-07T03:33:16.984Z,15.25
2019-06-07T03:35:45.321Z,16.90
2019-06-07T03:38:13.421Z,16.57
2019-06-07T03:40:41.555Z,17.05
2019-06-07T03:43:09.721Z,15.23
2019-06-07T03:45:41.243Z,16.45
2019-06-07T03:48:07.727Z,16.37
2019-06-07T03:50:38.814Z,16.27
2019-06-07T03:53:05.801Z,17.00
2019-06-07T03:55:35.674Z,17.65
2019-06-07T04:00:36.755Z,19.12
2019-06-07T04:03:03.531Z,17.57
2019-06-07T04:05:32.760Z,16.77
2019-06-07T04:08:01.563Z,19.45
2019-06-07T04:10:48.568Z,16.82
2019-06-07T04:12:59.611Z,16.67
2019-06-07T04:15:28.094Z,18.98
2019-06-07T04:18:01.711Z,18.65
2019-06-07T04:20:26.340Z,19.90
2019-06-07T04:22:54.503Z,19.00
2019-06-07T04:25:22.820Z,19.55
2019-06-07T04:27:51.167Z,20.35
2019-06-07T04:30:45.779Z,18.10
2019-06-07T04:33:14.529Z,20.48
2019-06-07T04:35:45.192Z,21.48
2019-06-07T04:38:14.608Z,17.87
2019-06-07T04:40:43.173Z,21.02
2019-06-07T04:43:11.341Z,20.52
2019-06-07T04:45:46.635Z,19.42
2019-06-07T04:48:09.686Z,20.52
2019-06-07T04:50:43.494Z,21.07
2019-06-07T04:53:08.791Z,19.87
2019-06-07T04:55:39.880Z,19.00
2019-06-07T04:58:07.066Z,20.23
2019-06-07T05:00:56.327Z,18.62
2019-06-07T05:05:34.537Z,19.77
2019-06-07T05:08:07.610Z,20.60
2019-06-07T05:10:35.173Z,20.40
2019-06-07T05:13:04.912Z,21.17
2019-06-07T05:15:34.638Z,19.73
2019-06-07T05:18:02.932Z,22.25
2019-06-07T05:20:34.183Z,19.37
2019-06-07T05:23:02.713Z,21.20
2019-06-07T05:25:33.208Z,19.20
2019-06-07T05:28:01.007Z,20.12
2019-06-07T05:31:01.935Z,19.75
2019-06-07T05:33:08.153Z,19.77
2019-06-07T05:35:40.952Z,21.10
2019-06-07T05:38:06.387Z,20.20
2019-06-07T05:40:37.293Z,19.82
2019-06-07T05:43:06.507Z,18.87
2019-06-07T05:45:38.472Z,18.70
2019-06-07T05:48:06.936Z,19.65
2019-06-07T05:50:44.848Z,19.27
2019-06-07T05:53:06.292Z,19.50
2019-06-07T05:55:35.216Z,20.35
2019-06-07T05:58:03.716Z,20.45
2019-06-07T06:00:34.586Z,20.65
2019-06-07T06:03:05.696Z,20.88
2019-06-07T06:05:36.501Z,19.12
2019-06-07T06:08:03.742Z,21.20
2019-06-07T06:10:31.917Z,20.90
2019-06-07T06:13:00.069Z,22.48
2019-06-07T06:15:42.199Z,21.87
2019-06-07T06:17:58.329Z,21.75
2019-06-07T06:20:32.787Z,21.68
2019-06-07T06:22:56.433Z,23.20
2019-06-07T06:25:33.848Z,22.37
2019-06-07T06:28:09.918Z,21.52
2019-06-07T06:30:24.796Z,21.55
2019-06-07T06:32:58.238Z,22.45
2019-06-07T06:35:22.827Z,21.97
2019-06-07T06:37:53.358Z,21.60
2019-06-07T06:40:22.586Z,21.40
2019-06-07T06:42:50.940Z,22.20
2019-06-07T06:45:20.638Z,21.12
2019-06-07T06:47:50.624Z,21.33
2019-06-07T06:50:19.884Z,21.00
2019-06-07T06:52:51.506Z,20.60
2019-06-07T06:55:18.491Z,20.45
2019-06-07T06:57:48.339Z,18.90
2019-06-07T07:00:18.635Z,20.02
2019-06-07T07:03:40.701Z,19.30
2019-06-07T07:05:16.753Z,20.50
2019-06-07T07:07:46.010Z,19.70
2019-06-07T07:10:19.497Z,19.40
2019-06-07T07:12:48.486Z,19.07
2019-06-07T07:15:18.059Z,19.65
2019-06-07T07:17:56.650Z,19.73
2019-06-07T07:20:16.214Z,17.73
2019-06-07T07:22:46.440Z,17.52
2019-06-07T07:25:14.373Z,17.62
2019-06-07T07:27:42.549Z,16.57
2019-06-07T07:32:46.440Z,16.82
2019-06-07T07:35:12.511Z,15.75
2019-06-07T07:37:40.719Z,16.17
2019-06-07T07:40:55.373Z,15.68
2019-06-07T07:42:39.034Z,15.98
2019-06-07T07:45:07.820Z,15.15
2019-06-07T07:47:36.031Z,16.23
2019-06-07T07:50:05.069Z,15.70
2019-06-07T07:52:33.458Z,15.93
2019-06-07T07:55:01.629Z,14.85
2019-06-07T07:57:29.837Z,15.98
2019-06-07T08:00:25.627Z,14.75
2019-06-07T08:02:27.849Z,14.63
2019-06-07T08:07:25.919Z,14.78
2019-06-07T08:09:59.508Z,14.47
2019-06-07T08:12:24.016Z,13.78
2019-06-07T08:14:57.522Z,14.13
2019-06-07T08:17:22.006Z,14.10
2019-06-07T08:19:52.274Z,13.88
2019-06-07T08:22:20.051Z,13.80
2019-06-07T08:24:50.511Z,14.15
2019-06-07T08:27:26.286Z,13.90
2019-06-07T08:30:07.852Z,14.18
2019-06-07T08:32:18.023Z,13.98
2019-06-07T08:34:46.193Z,13.50
2019-06-07T08:37:14.334Z,15.15
2019-06-07T08:39:42.496Z,13.35
2019-06-07T08:42:17.665Z,13.88
2019-06-07T08:44:40.570Z,12.85
2019-06-07T08:47:20.015Z,14.07
2019-06-07T08:49:38.628Z,12.93
2019-06-07T08:52:11.907Z,12.13
2019-06-07T08:54:36.704Z,12.68
2019-06-07T08:57:20.079Z,13.05
2019-06-07T08:59:34.855Z,13.30
2019-06-07T09:02:14.503Z,12.75
2019-06-07T09:04:32.984Z,11.00
2019-06-07T09:07:14.848Z,11.28
2019-06-07T09:09:32.911Z,10.00
2019-06-07T09:12:08.214Z,10.72
2019-06-07T09:14:33.233Z,9.65
2019-06-07T09:17:08.771Z,9.10
2019-06-07T09:19:31.240Z,10.55
2019-06-07T09:22:03.131Z,9.33
2019-06-07T09:24:29.254Z,8.75
2019-06-07T09:26:58.300Z,8.58
2019-06-07T09:29:28.527Z,7.58
2019-06-07T09:32:03.852Z,8.13
2019-06-07T09:34:26.593Z,7.10
2019-06-07T09:36:58.169Z,7.35
2019-06-07T09:41:52.492Z,7.22
2019-06-07T09:44:25.812Z,6.55
2019-06-07T09:47:12.959Z,7.25
2019-06-07T09:49:31.561Z,7.42
2019-06-07T09:51:50.306Z,7.17
2019-06-07T09:56:48.304Z,7.20
2019-06-07T09:59:16.480Z,7.17
2019-06-07T10:01:44.592Z,7.58
2019-06-07T10:04:30.175Z,7.60
2019-06-07T10:06:42.627Z,7.35
2019-06-07T10:11:40.587Z,6.80
2019-06-07T10:14:08.899Z,6.33
2019-06-07T10:16:46.494Z,6.58
2019-06-07T10:19:07.526Z,7.12
2019-06-07T10:21:35.703Z,6.10
2019-06-07T10:24:03.849Z,6.75
2019-06-07T10:26:32.022Z,6.50
2019-06-07T10:29:00.153Z,6.92
2019-06-07T10:31:28.289Z,6.67
2019-06-07T10:33:56.445Z,7.30
2019-06-07T10:36:24.614Z,7.20
2019-06-07T10:38:52.783Z,6.00
2019-06-07T10:41:20.955Z,6.58
2019-06-07T10:43:49.098Z,6.10
2019-06-07T10:46:17.289Z,5.83
2019-06-07T10:48:45.436Z,5.92
2019-06-07T10:51:14.710Z,5.70
2019-06-07T10:53:43.199Z,4.65
2019-06-07T10:56:11.391Z,5.12
2019-06-07T10:58:39.613Z,5.28
2019-06-07T11:01:07.765Z,5.15
2019-06-07T11:03:35.898Z,4.97
2019-06-07T11:06:05.615Z,5.78
2019-06-07T11:08:33.972Z,5.55
2019-06-07T11:11:02.097Z,5.15
2019-06-07T11:13:30.214Z,4.62
2019-06-07T11:15:58.459Z,4.47
2019-06-07T11:18:26.593Z,4.50
2019-06-07T11:20:54.760Z,4.37
2019-06-07T11:23:22.920Z,4.20
2019-06-07T11:25:51.048Z,4.80
2019-06-07T11:28:19.229Z,4.75
2019-06-07T11:30:47.359Z,4.62
2019-06-07T11:33:16.465Z,3.75
2019-06-07T11:35:44.956Z,3.90
2019-06-07T11:38:13.090Z,4.30
2019-06-07T11:40:41.257Z,3.62
2019-06-07T11:43:10.675Z,4.45
2019-06-07T11:45:38.881Z,3.10
2019-06-07T11:48:07.218Z,3.50
2019-06-07T11:50:35.362Z,2.90
2019-06-07T11:53:03.495Z,3.00
2019-06-07T11:55:31.666Z,3.20
2019-06-07T11:57:59.847Z,3.02
2019-06-07T12:00:28.101Z,3.27
2019-06-07T12:02:56.303Z,3.08
2019-06-07T12:05:24.423Z,2.85
2019-06-07T12:07:52.594Z,3.10
2019-06-07T12:10:23.167Z,2.50
2019-06-07T12:12:51.149Z,2.83
2019-06-07T12:15:19.451Z,2.87
2019-06-07T12:17:47.703Z,2.52
2019-06-07T12:20:17.487Z,2.45
2019-06-07T12:22:46.254Z,2.62
2019-06-07T12:25:18.977Z,2.45
2019-06-07T12:27:44.282Z,2.20
2019-06-07T12:30:20.271Z,2.37
2019-06-07T12:32:42.334Z,2.12
2019-06-07T12:35:11.492Z,2.08
2019-06-07T12:37:44.217Z,1.77
2019-06-07T12:40:10.363Z,1.85
2019-06-07T12:42:38.455Z,2.62
2019-06-07T12:45:07.251Z,2.30
2019-06-07T12:47:35.416Z,2.33
2019-06-07T12:50:04.123Z,2.10
2019-06-07T12:52:32.271Z,2.22
2019-06-07T12:55:00.432Z,1.90
2019-06-07T12:57:28.550Z,2.00
2019-06-07T12:59:56.756Z,1.82
2019-06-07T13:02:25.614Z,1.80
2019-06-07T13:04:53.918Z,1.57
2019-06-07T13:07:22.900Z,1.98
2019-06-07T13:09:52.048Z,1.57
2019-06-07T13:12:20.172Z,1.70
2019-06-07T13:14:48.378Z,1.67
2019-06-07T13:17:17.845Z,2.10
2019-06-07T13:19:46.182Z,1.80
2019-06-07T13:22:14.380Z,1.70
2019-06-07T13:24:42.598Z,2.00
2019-06-07T13:27:10.718Z,1.95
2019-06-07T13:29:38.993Z,1.90
2019-06-07T13:32:07.122Z,1.92
2019-06-07T13:34:35.263Z,2.12
2019-06-07T13:37:03.487Z,2.00
2019-06-07T13:39:31.631Z,2.15
2019-06-07T13:41:59.863Z,1.67
2019-06-07T13:44:29.298Z,2.05
2019-06-07T13:46:57.609Z,1.62
2019-06-07T13:49:25.801Z,2.00
2019-06-07T13:51:53.958Z,1.85
2019-06-07T13:54:22.752Z,1.77
2019-06-07T13:57:01.932Z,1.77
2019-06-07T13:59:22.225Z,1.80
2019-06-07T14:01:50.420Z,1.63
2019-06-07T14:04:18.848Z,2.17
2019-06-07T14:06:47.152Z,1.90
2019-06-07T14:09:15.372Z,2.10
2019-06-07T14:11:50.366Z,1.85
2019-06-07T14:14:13.391Z,1.65
2019-06-07T14:16:41.595Z,1.50
2019-06-07T14:19:09.737Z,1.80
2019-06-07T14:21:37.899Z,1.50
2019-06-07T14:24:06.095Z,1.77
2019-06-07T14:26:34.420Z,1.45
2019-06-07T14:29:02.562Z,1.50
2019-06-07T14:31:32.122Z,1.60
2019-06-07T14:34:00.455Z,1.80
2019-06-07T14:36:30.953Z,2.05
2019-06-07T14:38:59.142Z,1.47
2019-06-07T14:41:27.289Z,1.65
2019-06-07T14:43:55.484Z,1.50
2019-06-07T14:46:23.645Z,1.82
2019-06-07T14:48:51.792Z,1.60
2019-06-07T14:51:20.154Z,1.82
2019-06-07T14:53:48.317Z,1.90
2019-06-07T14:56:16.557Z,2.08
2019-06-07T14:58:44.775Z,1.70
2019-06-07T15:01:12.947Z,2.00
2019-06-07T15:03:41.115Z,1.70
2019-06-07T15:06:09.362Z,2.08
2019-06-07T15:08:39.128Z,1.90
2019-06-07T15:11:07.666Z,1.57
2019-06-07T15:13:35.954Z,1.70
2019-06-07T15:16:04.087Z,1.80
2019-06-07T15:18:33.777Z,2.17
2019-06-07T15:21:03.417Z,1.87
2019-06-07T15:23:33.304Z,1.85
2019-06-07T15:26:03.789Z,1.77
2019-06-07T15:31:00.694Z,1.95
2019-06-07T15:33:29.697Z,1.70
2019-06-07T15:35:58.096Z,2.42
2019-06-07T15:38:26.208Z,1.90
2019-06-07T15:40:54.697Z,1.87
2019-06-07T15:43:22.835Z,1.77
2019-06-07T15:45:51.059Z,1.92
2019-06-07T15:48:19.246Z,2.05
2019-06-07T15:50:47.411Z,2.02
2019-06-07T15:53:15.606Z,2.42
2019-06-07T15:55:45.799Z,2.25
2019-06-07T15:58:13.705Z,2.92
2019-06-07T16:00:42.674Z,2.60
2019-06-07T16:03:11.050Z,2.83
2019-06-07T16:05:40.515Z,2.70
2019-06-07T16:08:09.036Z,2.83
2019-06-07T16:10:38.733Z,2.37
2019-06-07T16:13:08.772Z,2.50
2019-06-07T16:15:37.130Z,2.47
2019-06-07T16:18:05.493Z,2.70
2019-06-07T16:20:33.652Z,2.62
2019-06-07T16:23:01.939Z,2.60
2019-06-07T16:25:30.182Z,13.62
2019-06-07T16:27:58.324Z,5.17
2019-06-07T16:30:26.494Z,4.53
2019-06-07T16:32:54.761Z,10.40
2019-06-07T16:35:22.961Z,4.97
2019-06-07T16:37:52.590Z,3.12
2019-06-07T16:40:21.743Z,2.40
2019-06-07T16:42:49.897Z,2.52
2019-06-07T16:45:18.809Z,2.37
